createdAt,value
2018-08-18T00:01:30.502Z,15.38
2018-08-18T00:04:05.202Z,15.15
2018-08-18T00:06:34.431Z,14.93
2018-08-18T00:09:03.724Z,14.93
2018-08-18T00:11:32.960Z,15.23
2018-08-18T00:14:02.204Z,14.83
2018-08-18T00:16:31.456Z,14.79
2018-08-18T00:19:01.577Z,14.85
2018-08-18T00:21:33.221Z,14.76
2018-08-18T00:24:08.825Z,14.78
2018-08-18T00:26:38.067Z,14.79
2018-08-18T00:29:09.099Z,15.27
2018-08-18T00:31:42.132Z,14.89
2018-08-18T00:34:11.378Z,14.72
2018-08-18T00:36:40.575Z,14.89
2018-08-18T00:39:12.274Z,15.25
2018-08-18T00:41:41.615Z,15.12
2018-08-18T00:44:11.799Z,14.82
2018-08-18T00:46:41.054Z,14.62
2018-08-18T00:49:10.273Z,14.50
2018-08-18T00:51:41.922Z,14.51
2018-08-18T00:54:11.168Z,14.54
2018-08-18T00:56:41.910Z,14.76
2018-08-18T00:59:11.159Z,14.77
2018-08-18T01:01:40.413Z,14.59
2018-08-18T01:04:10.260Z,14.96
2018-08-18T01:06:40.715Z,14.93
2018-08-18T01:09:11.751Z,14.63
2018-08-18T01:11:41.098Z,14.63
2018-08-18T01:14:16.608Z,14.48
2018-08-18T01:16:53.314Z,14.45
2018-08-18T01:19:23.553Z,14.32
2018-08-18T01:21:58.586Z,14.30
2018-08-18T01:24:28.432Z,14.46
2018-08-18T01:26:59.875Z,14.42
2018-08-18T01:29:29.127Z,14.19
2018-08-18T01:31:58.407Z,14.34
2018-08-18T01:34:27.644Z,14.08
2018-08-18T01:36:59.962Z,14.08
2018-08-18T01:39:29.255Z,14.26
2018-08-18T01:41:58.497Z,14.08
2018-08-18T01:44:27.736Z,14.10
2018-08-18T01:46:56.957Z,14.09
2018-08-18T01:49:32.527Z,14.15
2018-08-18T01:52:04.300Z,14.39
2018-08-18T01:54:33.938Z,14.53
2018-08-18T01:57:10.029Z,14.49
2018-08-18T01:59:41.486Z,14.46
2018-08-18T02:02:13.454Z,14.34
2018-08-18T02:04:43.133Z,14.55
2018-08-18T02:07:20.651Z,14.54
2018-08-18T02:09:49.907Z,14.32
2018-08-18T02:12:19.144Z,14.14
2018-08-18T02:14:48.408Z,14.08
2018-08-18T02:17:22.899Z,14.08
2018-08-18T02:19:52.537Z,14.13
2018-08-18T02:22:22.251Z,14.10
2018-08-18T02:24:51.478Z,14.06
2018-08-18T02:27:20.743Z,13.93
2018-08-18T02:30:07.371Z,14.22
2018-08-18T02:32:38.384Z,14.36
2018-08-18T02:35:08.442Z,14.47
2018-08-18T02:37:38.927Z,14.37
2018-08-18T02:40:10.938Z,14.47
2018-08-18T02:42:40.144Z,14.21
2018-08-18T02:45:10.532Z,14.40
2018-08-18T02:47:39.895Z,14.49
2018-08-18T02:50:10.680Z,14.45
2018-08-18T02:52:39.913Z,14.46
2018-08-18T02:55:11.122Z,14.29
2018-08-18T02:57:44.290Z,14.34
2018-08-18T03:00:24.281Z,14.67
2018-08-18T03:02:53.504Z,14.63
2018-08-18T03:05:22.775Z,14.34
2018-08-18T03:07:52.899Z,14.29
2018-08-18T03:10:22.788Z,14.67
2018-08-18T03:12:55.363Z,14.84
2018-08-18T03:16:09.547Z,14.47
2018-08-18T03:18:48.358Z,14.22
2018-08-18T03:21:17.821Z,14.14
2018-08-18T03:24:13.052Z,14.14
2018-08-18T03:26:44.058Z,14.15
2018-08-18T03:29:14.161Z,14.25
2018-08-18T03:31:43.735Z,14.22
2018-08-18T03:34:13.382Z,14.21
2018-08-18T03:36:44.787Z,14.18
2018-08-18T03:39:29.655Z,14.41
2018-08-18T03:42:00.060Z,14.32
2018-08-18T03:44:29.295Z,14.44
2018-08-18T03:46:58.535Z,14.24
2018-08-18T03:49:27.768Z,14.09
2018-08-18T03:51:57.017Z,13.99
2018-08-18T03:54:26.255Z,14.00
2018-08-18T03:56:55.564Z,14.38
2018-08-18T03:59:24.780Z,14.36
2018-08-18T04:02:00.942Z,14.10
2018-08-18T04:04:36.087Z,14.04
2018-08-18T04:07:06.999Z,14.34
2018-08-18T04:09:37.406Z,14.11
2018-08-18T04:12:09.024Z,14.16
2018-08-18T04:14:42.287Z,14.09
2018-08-18T04:17:29.154Z,14.21
2018-08-18T04:19:58.364Z,14.22
2018-08-18T04:22:27.604Z,14.05
2018-08-18T04:24:56.871Z,14.29
2018-08-18T04:27:45.080Z,14.18
2018-08-18T04:30:18.981Z,14.36
2018-08-18T04:32:58.919Z,14.40
2018-08-18T04:35:29.116Z,14.51
2018-08-18T04:37:59.253Z,14.73
2018-08-18T04:40:28.472Z,14.87
2018-08-18T04:42:59.140Z,14.99
2018-08-18T04:45:28.377Z,15.14
2018-08-18T04:47:57.627Z,15.30
2018-08-18T04:50:26.879Z,15.50
2018-08-18T04:52:56.151Z,16.04
2018-08-18T04:55:25.387Z,16.13
2018-08-18T04:57:54.621Z,16.33
2018-08-18T05:00:25.267Z,16.35
2018-08-18T05:02:58.724Z,16.18
2018-08-18T05:05:29.314Z,16.20
2018-08-18T05:07:59.567Z,16.60
2018-08-18T05:10:29.253Z,16.97
2018-08-18T05:12:58.495Z,17.32
2018-08-18T05:15:27.711Z,17.76
2018-08-18T05:17:56.936Z,18.16
2018-08-18T05:20:27.251Z,18.42
2018-08-18T05:23:05.083Z,18.62
2018-08-18T05:25:38.400Z,18.80
2018-08-18T05:28:07.653Z,20.07
2018-08-18T05:30:36.886Z,21.37
2018-08-18T05:33:06.123Z,21.25
2018-08-18T05:35:35.594Z,22.38
2018-08-18T05:38:06.103Z,23.20
2018-08-18T05:40:35.556Z,24.04
2018-08-18T05:43:04.794Z,22.91
2018-08-18T05:45:34.878Z,21.87
2018-08-18T05:48:04.152Z,21.34
2018-08-18T05:50:34.623Z,21.09
2018-08-18T05:53:21.431Z,20.66
2018-08-18T05:55:50.923Z,20.24
2018-08-18T05:58:21.406Z,20.07
2018-08-18T06:00:54.328Z,20.13
2018-08-18T06:03:23.571Z,20.43
2018-08-18T06:05:52.808Z,21.18
2018-08-18T06:08:22.036Z,22.04
2018-08-18T06:10:51.307Z,23.72
2018-08-18T06:13:21.066Z,25.29
2018-08-18T06:16:09.046Z,28.82
2018-08-18T06:18:39.297Z,30.52
2018-08-18T06:21:09.832Z,28.74
2018-08-18T06:23:39.546Z,27.67
2018-08-18T06:26:09.202Z,28.96
2018-08-18T06:28:38.463Z,28.47
2018-08-18T06:31:07.721Z,29.33
2018-08-18T06:33:38.180Z,28.69
2018-08-18T06:36:07.448Z,29.15
2018-08-18T06:38:36.682Z,29.39
2018-08-18T06:41:06.107Z,29.49
2018-08-18T06:43:35.590Z,31.94
2018-08-18T06:46:04.859Z,30.99
2018-08-18T06:48:35.734Z,30.16
2018-08-18T06:51:05.416Z,29.53
2018-08-18T06:53:39.850Z,30.93
2018-08-18T06:56:09.274Z,33.22
2018-08-18T06:58:38.578Z,27.67
2018-08-18T07:01:08.395Z,26.25
2018-08-18T07:03:44.754Z,24.89
2018-08-18T07:06:15.377Z,24.98
2018-08-18T07:08:58.975Z,24.19
2018-08-18T07:11:28.626Z,24.86
2018-08-18T07:13:57.854Z,28.19
2018-08-18T07:16:27.107Z,29.17
2018-08-18T07:18:56.323Z,30.65
2018-08-18T07:21:25.571Z,30.38
2018-08-18T07:23:54.826Z,30.66
2018-08-18T07:26:24.067Z,33.48
2018-08-18T07:28:53.389Z,31.00
2018-08-18T07:31:22.548Z,30.50
2018-08-18T07:33:51.787Z,31.05
2018-08-18T07:36:21.038Z,29.46
2018-08-18T07:38:50.271Z,28.23
2018-08-18T07:41:19.818Z,27.82
2018-08-18T07:43:49.051Z,26.48
2018-08-18T07:46:18.344Z,27.14
2018-08-18T07:48:47.543Z,28.15
2018-08-18T07:51:16.787Z,27.85
2018-08-18T07:53:46.041Z,27.85
2018-08-18T07:56:15.281Z,27.22
2018-08-18T07:58:44.503Z,26.86
2018-08-18T08:01:13.756Z,25.94
2018-08-18T08:03:42.984Z,25.51
2018-08-18T08:06:12.210Z,25.66
2018-08-18T08:08:46.534Z,25.74
2018-08-18T08:11:15.773Z,25.55
2018-08-18T08:13:44.989Z,25.94
2018-08-18T08:16:14.243Z,26.04
2018-08-18T08:18:43.480Z,26.21
2018-08-18T08:21:12.715Z,27.40
2018-08-18T08:23:41.949Z,28.09
2018-08-18T08:26:11.541Z,27.33
2018-08-18T08:28:40.771Z,27.63
2018-08-18T08:31:10.027Z,26.22
2018-08-18T08:33:39.764Z,26.60
2018-08-18T08:36:14.535Z,26.11
2018-08-18T08:39:00.142Z,26.27
2018-08-18T08:41:31.332Z,26.36
2018-08-18T08:44:00.771Z,26.76
2018-08-18T08:46:29.991Z,26.97
2018-08-18T08:49:00.845Z,27.17
2018-08-18T08:51:30.066Z,27.53
2018-08-18T08:54:00.234Z,28.94
2018-08-18T08:56:34.638Z,29.55
2018-08-18T08:59:04.147Z,29.10
2018-08-18T09:01:33.401Z,30.08
2018-08-18T09:04:03.074Z,29.86
2018-08-18T09:06:32.351Z,31.49
2018-08-18T09:09:01.584Z,32.66
2018-08-18T09:11:30.847Z,32.65
2018-08-18T09:14:04.641Z,31.95
2018-08-18T09:16:34.279Z,30.68
2018-08-18T09:19:03.504Z,28.68
2018-08-18T09:21:43.826Z,26.92
2018-08-18T09:24:13.283Z,27.21
2018-08-18T09:26:47.665Z,29.54
2018-08-18T09:29:16.906Z,29.75
2018-08-18T09:31:46.506Z,33.67
2018-08-18T09:34:15.910Z,31.12
2018-08-18T09:36:45.985Z,32.02
2018-08-18T09:39:22.583Z,35.13
2018-08-18T09:41:51.810Z,32.23
2018-08-18T09:44:26.974Z,31.94
2018-08-18T09:46:56.784Z,30.22
2018-08-18T09:49:26.189Z,30.37
2018-08-18T09:51:55.430Z,30.44
2018-08-18T09:54:25.759Z,29.97
2018-08-18T09:56:55.173Z,31.19
2018-08-18T09:59:24.605Z,30.27
2018-08-18T10:01:54.086Z,30.37
2018-08-18T10:04:23.352Z,30.47
2018-08-18T10:06:53.519Z,29.99
2018-08-18T10:09:22.878Z,30.28
2018-08-18T10:11:52.115Z,31.14
2018-08-18T10:14:21.346Z,32.41
2018-08-18T10:16:50.787Z,32.58
2018-08-18T10:19:20.036Z,33.82
2018-08-18T10:21:49.275Z,32.93
2018-08-18T10:24:18.529Z,32.30
2018-08-18T10:26:53.501Z,32.94
2018-08-18T10:29:24.032Z,30.37
2018-08-18T10:31:55.296Z,30.02
2018-08-18T10:34:25.700Z,29.66
2018-08-18T10:36:58.053Z,31.57
2018-08-18T10:39:27.330Z,32.05
2018-08-18T10:42:16.815Z,32.89
2018-08-18T10:44:52.055Z,32.96
2018-08-18T10:47:22.755Z,32.70
2018-08-18T10:50:09.021Z,33.26
2018-08-18T10:52:55.056Z,33.90
2018-08-18T10:55:24.323Z,33.82
2018-08-18T10:58:01.095Z,33.50
2018-08-18T11:00:31.464Z,33.54
2018-08-18T11:03:02.028Z,32.92
2018-08-18T11:05:31.639Z,35.62
2018-08-18T11:08:06.132Z,32.28
2018-08-18T11:10:37.232Z,32.77
2018-08-18T11:13:06.517Z,31.73
2018-08-18T11:15:35.763Z,31.25
2018-08-18T11:18:05.024Z,33.31
2018-08-18T11:20:35.120Z,33.52
2018-08-18T11:23:16.639Z,33.50
2018-08-18T11:25:53.171Z,32.55
2018-08-18T11:28:23.133Z,32.86
2018-08-18T11:30:52.931Z,31.79
2018-08-18T11:33:40.422Z,32.17
2018-08-18T11:36:10.528Z,33.16
2018-08-18T11:38:40.669Z,33.62
2018-08-18T11:41:09.930Z,33.22
2018-08-18T11:43:47.150Z,30.77
2018-08-18T11:46:16.438Z,30.97
2018-08-18T11:48:45.688Z,32.03
2018-08-18T11:51:14.923Z,31.59
2018-08-18T11:53:59.982Z,32.10
2018-08-18T11:56:29.334Z,33.28
2018-08-18T11:59:09.048Z,31.55
2018-08-18T12:01:39.677Z,31.51
2018-08-18T12:04:08.934Z,31.68
2018-08-18T12:06:47.339Z,31.35
2018-08-18T12:09:16.585Z,30.42
2018-08-18T12:11:47.571Z,30.04
2018-08-18T12:14:16.909Z,31.70
2018-08-18T12:16:46.152Z,32.94
2018-08-18T12:19:15.369Z,33.34
2018-08-18T12:21:45.619Z,32.90
2018-08-18T12:24:20.027Z,32.45
2018-08-18T12:27:08.840Z,32.52
2018-08-18T12:29:38.158Z,32.16
2018-08-18T12:32:12.463Z,32.39
2018-08-18T12:34:41.702Z,31.44
2018-08-18T12:37:10.924Z,30.68
2018-08-18T12:39:40.163Z,34.96
2018-08-18T12:42:10.631Z,30.33
2018-08-18T12:44:40.851Z,31.15
2018-08-18T12:47:10.071Z,31.84
2018-08-18T12:49:40.502Z,31.63
2018-08-18T12:52:09.698Z,30.37
2018-08-18T12:54:38.947Z,31.14
2018-08-18T12:57:08.917Z,31.49
2018-08-18T12:59:38.117Z,30.88
2018-08-18T13:02:07.362Z,30.11
2018-08-18T13:04:36.620Z,30.07
2018-08-18T13:07:05.923Z,27.95
2018-08-18T13:09:35.150Z,28.28
2018-08-18T13:12:04.395Z,28.81
2018-08-18T13:14:33.651Z,28.87
2018-08-18T13:17:02.872Z,29.09
2018-08-18T13:19:34.370Z,29.15
2018-08-18T13:22:04.089Z,28.97
2018-08-18T13:24:33.407Z,28.97
2018-08-18T13:27:03.224Z,29.42
2018-08-18T13:29:33.216Z,28.05
2018-08-18T13:32:02.455Z,28.60
2018-08-18T13:34:32.060Z,29.24
2018-08-18T13:37:01.295Z,29.30
2018-08-18T13:39:30.550Z,29.24
2018-08-18T13:42:10.271Z,28.91
2018-08-18T13:44:39.485Z,28.36
2018-08-18T13:47:08.758Z,28.68
2018-08-18T13:49:38.001Z,29.16
2018-08-18T13:52:07.252Z,28.43
2018-08-18T13:54:40.588Z,28.35
2018-08-18T13:57:10.170Z,28.52
2018-08-18T13:59:40.927Z,28.72
2018-08-18T14:02:10.755Z,28.88
2018-08-18T14:04:41.763Z,27.99
2018-08-18T14:07:11.115Z,28.46
2018-08-18T14:09:45.480Z,28.70
2018-08-18T14:12:15.784Z,28.69
2018-08-18T14:14:45.628Z,28.33
2018-08-18T14:17:15.659Z,28.24
2018-08-18T14:19:44.992Z,27.95
2018-08-18T14:22:15.954Z,27.78
2018-08-18T14:24:45.192Z,28.21
2018-08-18T14:27:18.012Z,28.48
2018-08-18T14:29:47.267Z,28.98
2018-08-18T14:32:28.786Z,28.34
2018-08-18T14:35:07.268Z,27.83
2018-08-18T14:37:39.918Z,27.78
2018-08-18T14:40:12.099Z,28.31
2018-08-18T14:42:41.332Z,28.37
2018-08-18T14:45:14.456Z,28.35
2018-08-18T14:47:43.776Z,27.70
2018-08-18T14:50:23.095Z,27.16
2018-08-18T14:52:53.041Z,26.93
2018-08-18T14:55:22.282Z,27.16
2018-08-18T14:58:06.407Z,27.46
2018-08-18T15:00:35.638Z,27.82
2018-08-18T15:03:04.854Z,27.99
2018-08-18T15:05:34.090Z,27.51
2018-08-18T15:08:04.290Z,27.93
2018-08-18T15:10:40.861Z,28.17
2018-08-18T15:13:10.701Z,28.36
2018-08-18T15:15:39.955Z,28.23
2018-08-18T15:18:11.539Z,27.73
2018-08-18T15:20:41.278Z,27.55
2018-08-18T15:23:11.206Z,27.43
2018-08-18T15:25:41.211Z,27.49
2018-08-18T15:28:12.587Z,27.17
2018-08-18T15:30:45.143Z,26.82
2018-08-18T15:33:19.007Z,27.30
2018-08-18T15:35:48.270Z,27.49
2018-08-18T15:38:17.559Z,27.38
2018-08-18T15:40:46.830Z,27.36
2018-08-18T15:43:16.071Z,27.26
2018-08-18T15:46:04.862Z,27.33
2018-08-18T15:48:34.591Z,26.52
2018-08-18T15:51:03.841Z,26.40
2018-08-18T15:53:50.543Z,26.77
2018-08-18T15:56:20.627Z,26.94
2018-08-18T15:58:50.500Z,27.14
2018-08-18T16:01:24.732Z,26.79
2018-08-18T16:03:54.503Z,26.91
2018-08-18T16:06:23.897Z,27.24
2018-08-18T16:08:53.546Z,26.97
2018-08-18T16:11:22.807Z,26.62
2018-08-18T16:13:52.148Z,26.64
2018-08-18T16:16:21.272Z,26.25
2018-08-18T16:18:55.219Z,26.27
2018-08-18T16:21:25.046Z,26.12
2018-08-18T16:23:54.310Z,25.97
2018-08-18T16:26:23.510Z,26.00
2018-08-18T16:28:53.467Z,25.95
2018-08-18T16:31:22.722Z,26.04
2018-08-18T16:33:53.011Z,26.18
2018-08-18T16:36:22.511Z,26.25
2018-08-18T16:38:51.736Z,26.35
2018-08-18T16:41:20.983Z,26.46
2018-08-18T16:43:51.446Z,26.40
2018-08-18T16:46:27.682Z,26.27
2018-08-18T16:48:56.910Z,26.14
2018-08-18T16:51:26.296Z,26.10
2018-08-18T16:53:55.519Z,25.95
2018-08-18T16:56:27.528Z,25.84
2018-08-18T16:58:59.969Z,25.38
2018-08-18T17:01:30.452Z,25.11
2018-08-18T17:03:59.687Z,25.15
2018-08-18T17:06:28.917Z,25.12
2018-08-18T17:08:58.167Z,25.15
2018-08-18T17:11:27.417Z,25.25
2018-08-18T17:13:59.147Z,25.40
2018-08-18T17:16:28.404Z,24.99
2018-08-18T17:18:57.597Z,24.90
2018-08-18T17:21:26.842Z,24.82
2018-08-18T17:23:56.079Z,24.89
2018-08-18T17:26:26.185Z,24.96
2018-08-18T17:28:55.411Z,24.86
2018-08-18T17:31:24.656Z,24.85
2018-08-18T17:33:53.874Z,24.78
2018-08-18T17:36:23.107Z,24.67
2018-08-18T17:38:52.330Z,24.64
2018-08-18T17:41:21.582Z,24.51
2018-08-18T17:43:50.823Z,24.39
2018-08-18T17:46:20.039Z,24.27
2018-08-18T17:48:54.131Z,23.98
2018-08-18T17:51:23.369Z,24.01
2018-08-18T17:53:54.654Z,23.89
2018-08-18T17:56:23.890Z,23.77
2018-08-18T17:58:53.160Z,23.52
2018-08-18T18:01:22.405Z,23.27
2018-08-18T18:03:51.618Z,23.02
2018-08-18T18:06:22.427Z,22.75
2018-08-18T18:08:51.825Z,22.47
2018-08-18T18:11:21.058Z,22.25
2018-08-18T18:13:50.313Z,22.07
2018-08-18T18:16:26.925Z,21.94
2018-08-18T18:18:58.458Z,22.44
2018-08-18T18:21:27.647Z,22.41
2018-08-18T18:23:56.892Z,21.90
2018-08-18T18:26:26.106Z,21.92
2018-08-18T18:28:55.346Z,21.76
2018-08-18T18:31:24.585Z,21.35
2018-08-18T18:33:58.803Z,21.07
2018-08-18T18:36:28.026Z,20.89
2018-08-18T18:38:57.839Z,20.69
2018-08-18T18:41:27.411Z,20.65
2018-08-18T18:44:03.527Z,20.45
2018-08-18T18:46:32.777Z,20.34
2018-08-18T18:49:02.020Z,20.22
2018-08-18T18:51:31.294Z,20.11
2018-08-18T18:54:00.521Z,20.04
2018-08-18T18:56:29.750Z,19.89
2018-08-18T18:58:58.987Z,19.75
2018-08-18T19:01:28.227Z,20.12
2018-08-18T19:03:57.469Z,20.18
2018-08-18T19:06:26.713Z,20.18
2018-08-18T19:09:00.351Z,20.25
2018-08-18T19:11:29.659Z,20.12
2018-08-18T19:13:59.278Z,19.67
2018-08-18T19:16:28.511Z,19.38
2018-08-18T19:18:57.802Z,19.19
2018-08-18T19:21:32.927Z,19.05
2018-08-18T19:24:09.653Z,18.95
2018-08-18T19:26:48.198Z,18.92
2018-08-18T19:29:17.943Z,18.79
2018-08-18T19:31:50.810Z,18.72
2018-08-18T19:34:20.107Z,18.64
2018-08-18T19:37:03.831Z,18.56
2018-08-18T19:39:34.235Z,18.50
2018-08-18T19:42:08.999Z,18.78
2018-08-18T19:44:41.596Z,18.46
2018-08-18T19:47:10.836Z,18.37
2018-08-18T19:49:43.536Z,18.32
2018-08-18T19:52:14.735Z,18.18
2018-08-18T19:54:45.295Z,18.07
2018-08-18T19:57:23.047Z,18.00
2018-08-18T19:59:52.855Z,18.01
2018-08-18T20:02:22.141Z,17.99
2018-08-18T20:04:51.768Z,17.96
2018-08-18T20:07:20.972Z,18.24
2018-08-18T20:09:50.198Z,18.33
2018-08-18T20:12:19.487Z,18.21
2018-08-18T20:14:48.722Z,17.89
2018-08-18T20:17:18.022Z,17.79
2018-08-18T20:19:47.246Z,18.09
2018-08-18T20:22:16.814Z,17.61
2018-08-18T20:24:46.119Z,17.44
2018-08-18T20:27:15.287Z,17.68
2018-08-18T20:29:44.556Z,17.42
2018-08-18T20:32:13.778Z,17.54
2018-08-18T20:34:43.116Z,17.22
2018-08-18T20:37:12.262Z,17.10
2018-08-18T20:39:41.486Z,17.01
2018-08-18T20:42:10.739Z,16.99
2018-08-18T20:44:39.965Z,17.00
2018-08-18T20:47:09.195Z,16.95
2018-08-18T20:49:38.454Z,16.92
2018-08-18T20:52:07.699Z,16.90
2018-08-18T20:54:36.938Z,16.99
2018-08-18T20:57:06.283Z,17.09
2018-08-18T20:59:35.558Z,16.92
2018-08-18T21:02:04.815Z,16.82
2018-08-18T21:04:34.058Z,16.80
2018-08-18T21:07:03.282Z,16.84
2018-08-18T21:09:33.479Z,16.74
2018-08-18T21:12:02.722Z,16.87
2018-08-18T21:14:31.943Z,16.94
2018-08-18T21:17:01.199Z,17.02
2018-08-18T21:19:30.455Z,16.64
2018-08-18T21:21:59.707Z,16.49
2018-08-18T21:24:28.978Z,16.36
2018-08-18T21:26:58.225Z,16.30
2018-08-18T21:29:27.443Z,16.40
2018-08-18T21:31:56.668Z,16.39
2018-08-18T21:34:25.923Z,16.29
2018-08-18T21:36:55.175Z,16.22
2018-08-18T21:39:24.393Z,16.20
2018-08-18T21:41:53.655Z,16.13
2018-08-18T21:44:23.729Z,16.03
2018-08-18T21:46:52.969Z,16.05
2018-08-18T21:49:22.212Z,16.00
2018-08-18T21:51:51.484Z,15.96
2018-08-18T21:54:20.694Z,15.97
2018-08-18T21:56:49.933Z,15.88
2018-08-18T21:59:19.195Z,15.81
2018-08-18T22:01:48.428Z,16.11
2018-08-18T22:04:17.669Z,16.11
2018-08-18T22:06:46.911Z,16.24
2018-08-18T22:09:23.078Z,16.04
2018-08-18T22:11:52.445Z,15.88
2018-08-18T22:14:21.670Z,15.77
2018-08-18T22:16:56.855Z,15.76
2018-08-18T22:19:27.268Z,15.74
2018-08-18T22:21:56.550Z,15.72
2018-08-18T22:24:25.912Z,15.64
2018-08-18T22:26:55.184Z,15.64
2018-08-18T22:29:25.783Z,15.63
2018-08-18T22:31:55.060Z,15.56
2018-08-18T22:34:24.295Z,15.55
2018-08-18T22:37:01.668Z,15.64
2018-08-18T22:39:30.938Z,15.47
2018-08-18T22:42:00.184Z,15.47
2018-08-18T22:44:29.836Z,15.41
2018-08-18T22:46:59.074Z,15.68
2018-08-18T22:49:28.315Z,15.33
2018-08-18T22:51:57.579Z,15.31
2018-08-18T22:54:26.820Z,15.21
2018-08-18T22:57:00.986Z,15.33
2018-08-18T22:59:30.726Z,15.13
2018-08-18T23:01:59.972Z,15.12
2018-08-18T23:04:34.548Z,15.11
2018-08-18T23:07:05.012Z,15.09
2018-08-18T23:09:34.271Z,15.13
2018-08-18T23:12:05.476Z,15.26
2018-08-18T23:14:36.941Z,15.04
2018-08-18T23:17:07.965Z,14.90
2018-08-18T23:19:37.243Z,14.85
2018-08-18T23:22:06.523Z,14.79
2018-08-18T23:24:39.183Z,14.81
2018-08-18T23:27:08.422Z,14.92
2018-08-18T23:34:45.082Z,14.67
2018-08-18T23:37:18.378Z,14.62
2018-08-18T23:39:50.599Z,14.75
2018-08-18T23:42:22.045Z,14.75
2018-08-18T23:44:51.278Z,14.73
2018-08-18T23:47:20.718Z,14.61
2018-08-18T23:49:49.974Z,14.60
2018-08-18T23:52:19.227Z,14.73
2018-08-18T23:54:48.482Z,14.57
2018-08-18T23:57:18.613Z,14.85
2018-08-18T23:59:48.138Z,14.63
